sensor_id;sensor_type;location;lat;lon;timestamp;P1;durP1;ratioP1;P2;durP2;ratioP2
27187;SDS011;14708;50.872;5.306;2023-05-07T00:02:11;9.50;;;4.38;;
27187;SDS011;14708;50.872;5.306;2023-05-07T00:04:37;9.63;;;4.40;;
27187;SDS011;14708;50.872;5.306;2023-05-07T00:07:03;9.52;;;4.80;;
27187;SDS011;14708;50.872;5.306;2023-05-07T00:09:30;9.57;;;4.53;;
27187;SDS011;14708;50.872;5.306;2023-05-07T00:11:56;9.52;;;4.35;;
27187;SDS011;14708;50.872;5.306;2023-05-07T00:14:26;9.50;;;4.18;;
27187;SDS011;14708;50.872;5.306;2023-05-07T00:16:55;8.00;;;3.92;;
27187;SDS011;14708;50.872;5.306;2023-05-07T00:19:23;8.43;;;4.13;;
27187;SDS011;14708;50.872;5.306;2023-05-07T00:21:51;9.48;;;4.07;;
27187;SDS011;14708;50.872;5.306;2023-05-07T00:24:19;7.20;;;3.83;;
27187;SDS011;14708;50.872;5.306;2023-05-07T00:26:45;7.97;;;4.07;;
27187;SDS011;14708;50.872;5.306;2023-05-07T00:29:13;7.20;;;4.03;;
27187;SDS011;14708;50.872;5.306;2023-05-07T00:31:39;7.70;;;3.45;;
27187;SDS011;14708;50.872;5.306;2023-05-07T00:34:05;10.82;;;4.53;;
27187;SDS011;14708;50.872;5.306;2023-05-07T00:36:34;10.18;;;4.30;;
27187;SDS011;14708;50.872;5.306;2023-05-07T00:39:00;7.97;;;3.88;;
27187;SDS011;14708;50.872;5.306;2023-05-07T00:41:28;8.55;;;4.10;;
27187;SDS011;14708;50.872;5.306;2023-05-07T08:03:23;22.85;;;8.07;;
27187;SDS011;14708;50.872;5.306;2023-05-07T08:05:48;26.70;;;7.72;;
27187;SDS011;14708;50.872;5.306;2023-05-07T08:08:16;26.30;;;9.48;;
27187;SDS011;14708;50.872;5.306;2023-05-07T08:10:41;28.70;;;8.82;;
27187;SDS011;14708;50.872;5.306;2023-05-07T08:13:07;25.40;;;8.18;;
27187;SDS011;14708;50.872;5.306;2023-05-07T08:15:33;27.05;;;9.25;;
27187;SDS011;14708;50.872;5.306;2023-05-07T08:17:59;27.35;;;9.75;;
27187;SDS011;14708;50.872;5.306;2023-05-07T08:20:28;26.87;;;8.13;;
27187;SDS011;14708;50.872;5.306;2023-05-07T08:22:53;20.10;;;7.95;;
27187;SDS011;14708;50.872;5.306;2023-05-07T08:25:19;29.17;;;9.23;;
27187;SDS011;14708;50.872;5.306;2023-05-07T08:27:48;26.67;;;11.50;;
27187;SDS011;14708;50.872;5.306;2023-05-07T08:30:16;25.80;;;9.95;;
27187;SDS011;14708;50.872;5.306;2023-05-07T08:32:42;43.13;;;15.85;;
27187;SDS011;14708;50.872;5.306;2023-05-07T08:35:08;26.48;;;10.98;;
27187;SDS011;14708;50.872;5.306;2023-05-07T08:37:34;38.15;;;12.70;;
27187;SDS011;14708;50.872;5.306;2023-05-07T08:40:00;28.38;;;11.05;;
27187;SDS011;14708;50.872;5.306;2023-05-07T08:42:25;26.33;;;10.77;;
27187;SDS011;14708;50.872;5.306;2023-05-07T08:44:53;20.48;;;8.50;;
27187;SDS011;14708;50.872;5.306;2023-05-07T08:47:22;23.80;;;9.38;;
27187;SDS011;14708;50.872;5.306;2023-05-07T08:49:57;29.60;;;10.48;;
27187;SDS011;14708;50.872;5.306;2023-05-07T08:52:23;24.02;;;10.13;;
27187;SDS011;14708;50.872;5.306;2023-05-07T08:54:49;20.80;;;9.18;;
27187;SDS011;14708;50.872;5.306;2023-05-07T08:57:15;23.58;;;9.57;;
27187;SDS011;14708;50.872;5.306;2023-05-07T08:59:41;23.25;;;9.00;;
27187;SDS011;14708;50.872;5.306;2023-05-07T09:02:07;26.90;;;9.65;;
27187;SDS011;14708;50.872;5.306;2023-05-07T09:04:35;22.17;;;9.50;;
27187;SDS011;14708;50.872;5.306;2023-05-07T09:07:00;23.33;;;8.88;;
27187;SDS011;14708;50.872;5.306;2023-05-07T09:09:31;27.02;;;10.10;;
27187;SDS011;14708;50.872;5.306;2023-05-07T09:12:00;22.95;;;9.00;;
27187;SDS011;14708;50.872;5.306;2023-05-07T09:14:27;19.40;;;8.95;;
27187;SDS011;14708;50.872;5.306;2023-05-07T09:16:53;22.35;;;9.23;;
27187;SDS011;14708;50.872;5.306;2023-05-07T09:19:22;16.23;;;8.55;;
27187;SDS011;14708;50.872;5.306;2023-05-07T09:21:49;25.67;;;9.13;;
27187;SDS011;14708;50.872;5.306;2023-05-07T09:24:22;20.17;;;8.80;;
27187;SDS011;14708;50.872;5.306;2023-05-07T09:26:48;21.10;;;8.40;;
27187;SDS011;14708;50.872;5.306;2023-05-07T09:29:15;21.40;;;8.70;;
27187;SDS011;14708;50.872;5.306;2023-05-07T09:31:42;14.88;;;6.70;;
27187;SDS011;14708;50.872;5.306;2023-05-07T09:34:07;18.83;;;7.72;;
27187;SDS011;14708;50.872;5.306;2023-05-07T09:36:33;14.75;;;7.70;;
27187;SDS011;14708;50.872;5.306;2023-05-07T09:38:59;18.98;;;7.90;;
27187;SDS011;14708;50.872;5.306;2023-05-07T09:41:25;17.10;;;7.07;;
27187;SDS011;14708;50.872;5.306;2023-05-07T09:43:54;15.77;;;7.32;;
27187;SDS011;14708;50.872;5.306;2023-05-07T09:48:50;24.63;;;10.45;;
27187;SDS011;14708;50.872;5.306;2023-05-07T09:51:30;26.27;;;9.57;;
27187;SDS011;14708;50.872;5.306;2023-05-07T09:54:06;26.63;;;9.52;;
27187;SDS011;14708;50.872;5.306;2023-05-07T09:56:32;26.15;;;10.10;;
27187;SDS011;14708;50.872;5.306;2023-05-07T09:58:59;27.67;;;10.13;;
27187;SDS011;14708;50.872;5.306;2023-05-07T10:01:25;30.75;;;10.80;;
27187;SDS011;14708;50.872;5.306;2023-05-07T10:03:52;23.75;;;9.02;;
27187;SDS011;14708;50.872;5.306;2023-05-07T10:06:19;24.02;;;10.05;;
27187;SDS011;14708;50.872;5.306;2023-05-07T10:08:45;28.20;;;10.45;;
27187;SDS011;14708;50.872;5.306;2023-05-07T10:11:13;28.70;;;9.90;;
27187;SDS011;14708;50.872;5.306;2023-05-07T10:13:41;32.22;;;10.55;;
27187;SDS011;14708;50.872;5.306;2023-05-07T10:16:07;26.83;;;9.85;;
27187;SDS011;14708;50.872;5.306;2023-05-07T10:18:33;31.65;;;9.15;;
27187;SDS011;14708;50.872;5.306;2023-05-07T10:21:02;26.80;;;9.63;;
27187;SDS011;14708;50.872;5.306;2023-05-07T10:23:33;28.42;;;10.75;;
27187;SDS011;14708;50.872;5.306;2023-05-07T10:26:04;33.40;;;10.57;;
27187;SDS011;14708;50.872;5.306;2023-05-07T10:28:34;27.17;;;9.55;;
27187;SDS011;14708;50.872;5.306;2023-05-07T10:33:51;25.45;;;9.32;;
27187;SDS011;14708;50.872;5.306;2023-05-07T10:36:19;23.20;;;8.68;;
27187;SDS011;14708;50.872;5.306;2023-05-07T10:38:46;27.13;;;8.50;;
27187;SDS011;14708;50.872;5.306;2023-05-07T10:41:11;31.08;;;8.70;;
27187;SDS011;14708;50.872;5.306;2023-05-07T10:43:41;36.30;;;8.85;;
27187;SDS011;14708;50.872;5.306;2023-05-07T10:46:13;27.90;;;8.73;;
27187;SDS011;14708;50.872;5.306;2023-05-07T10:51:25;17.30;;;8.13;;
27187;SDS011;14708;50.872;5.306;2023-05-07T10:56:41;19.02;;;7.90;;
27187;SDS011;14708;50.872;5.306;2023-05-07T11:04:22;22.00;;;8.82;;
27187;SDS011;14708;50.872;5.306;2023-05-07T11:15:15;16.58;;;6.40;;
27187;SDS011;14708;50.872;5.306;2023-05-07T11:17:59;22.42;;;7.80;;
27187;SDS011;14708;50.872;5.306;2023-05-07T11:26:00;15.35;;;6.68;;
27187;SDS011;14708;50.872;5.306;2023-05-07T11:28:28;19.58;;;7.18;;
27187;SDS011;14708;50.872;5.306;2023-05-07T11:30:54;16.92;;;6.85;;
27187;SDS011;14708;50.872;5.306;2023-05-07T11:33:22;22.25;;;7.30;;
27187;SDS011;14708;50.872;5.306;2023-05-07T11:35:50;22.30;;;7.93;;
27187;SDS011;14708;50.872;5.306;2023-05-07T11:38:19;20.77;;;8.10;;
27187;SDS011;14708;50.872;5.306;2023-05-07T11:41:03;23.15;;;7.93;;
27187;SDS011;14708;50.872;5.306;2023-05-07T11:43:30;19.55;;;7.47;;
27187;SDS011;14708;50.872;5.306;2023-05-07T11:46:10;16.77;;;7.35;;
27187;SDS011;14708;50.872;5.306;2023-05-07T11:48:37;19.48;;;6.93;;
27187;SDS011;14708;50.872;5.306;2023-05-07T11:51:06;14.93;;;6.30;;
27187;SDS011;14708;50.872;5.306;2023-05-07T11:53:39;20.35;;;7.68;;
27187;SDS011;14708;50.872;5.306;2023-05-07T11:56:07;15.30;;;6.80;;
27187;SDS011;14708;50.872;5.306;2023-05-07T11:58:34;15.48;;;6.72;;
27187;SDS011;14708;50.872;5.306;2023-05-07T12:01:00;17.65;;;7.15;;
27187;SDS011;14708;50.872;5.306;2023-05-07T12:03:26;16.52;;;7.43;;
27187;SDS011;14708;50.872;5.306;2023-05-07T12:05:51;16.73;;;7.38;;
27187;SDS011;14708;50.872;5.306;2023-05-07T12:08:17;14.75;;;6.78;;
27187;SDS011;14708;50.872;5.306;2023-05-07T12:10:45;15.98;;;7.28;;
27187;SDS011;14708;50.872;5.306;2023-05-07T12:13:16;21.07;;;7.13;;
27187;SDS011;14708;50.872;5.306;2023-05-07T12:15:45;18.50;;;7.32;;
27187;SDS011;14708;50.872;5.306;2023-05-07T12:18:12;19.80;;;6.57;;
27187;SDS011;14708;50.872;5.306;2023-05-07T12:20:38;14.23;;;7.00;;
27187;SDS011;14708;50.872;5.306;2023-05-07T12:23:04;15.32;;;6.30;;
27187;SDS011;14708;50.872;5.306;2023-05-07T12:25:37;13.30;;;6.90;;
27187;SDS011;14708;50.872;5.306;2023-05-07T12:28:03;14.32;;;5.97;;
27187;SDS011;14708;50.872;5.306;2023-05-07T12:30:43;18.98;;;6.68;;
27187;SDS011;14708;50.872;5.306;2023-05-07T12:33:10;13.45;;;6.30;;
27187;SDS011;14708;50.872;5.306;2023-05-07T12:35:36;14.70;;;6.40;;
27187;SDS011;14708;50.872;5.306;2023-05-07T12:38:08;18.25;;;6.85;;
27187;SDS011;14708;50.872;5.306;2023-05-07T12:40:42;14.60;;;6.38;;
27187;SDS011;14708;50.872;5.306;2023-05-07T12:43:25;14.10;;;6.13;;
27187;SDS011;14708;50.872;5.306;2023-05-07T12:45:53;16.17;;;6.63;;
27187;SDS011;14708;50.872;5.306;2023-05-07T12:48:20;15.20;;;6.70;;
27187;SDS011;14708;50.872;5.306;2023-05-07T12:50:50;14.82;;;5.78;;
27187;SDS011;14708;50.872;5.306;2023-05-07T12:53:17;16.38;;;6.35;;
27187;SDS011;14708;50.872;5.306;2023-05-07T12:58:16;17.05;;;7.10;;
27187;SDS011;14708;50.872;5.306;2023-05-07T13:00:53;16.17;;;6.30;;
27187;SDS011;14708;50.872;5.306;2023-05-07T13:03:24;14.63;;;6.35;;
27187;SDS011;14708;50.872;5.306;2023-05-07T13:05:54;15.60;;;5.95;;
27187;SDS011;14708;50.872;5.306;2023-05-07T13:08:26;13.27;;;5.87;;
27187;SDS011;14708;50.872;5.306;2023-05-07T13:11:00;13.43;;;6.35;;
27187;SDS011;14708;50.872;5.306;2023-05-07T13:13:28;11.98;;;6.50;;
27187;SDS011;14708;50.872;5.306;2023-05-07T13:15:58;16.60;;;6.65;;
27187;SDS011;14708;50.872;5.306;2023-05-07T13:18:26;16.65;;;6.65;;
27187;SDS011;14708;50.872;5.306;2023-05-07T13:20:55;15.77;;;5.78;;
27187;SDS011;14708;50.872;5.306;2023-05-07T13:23:21;17.73;;;5.57;;
27187;SDS011;14708;50.872;5.306;2023-05-07T13:25:47;11.57;;;5.78;;
27187;SDS011;14708;50.872;5.306;2023-05-07T13:28:13;13.00;;;6.35;;
27187;SDS011;14708;50.872;5.306;2023-05-07T13:30:39;14.60;;;5.53;;
27187;SDS011;14708;50.872;5.306;2023-05-07T13:33:05;13.73;;;5.45;;
27187;SDS011;14708;50.872;5.306;2023-05-07T13:35:31;14.30;;;6.18;;
27187;SDS011;14708;50.872;5.306;2023-05-07T13:37:57;11.75;;;5.63;;
27187;SDS011;14708;50.872;5.306;2023-05-07T13:40:23;15.10;;;6.07;;
27187;SDS011;14708;50.872;5.306;2023-05-07T13:42:49;10.05;;;5.25;;
27187;SDS011;14708;50.872;5.306;2023-05-07T13:45:17;11.95;;;5.70;;
27187;SDS011;14708;50.872;5.306;2023-05-07T13:47:43;14.15;;;5.93;;
27187;SDS011;14708;50.872;5.306;2023-05-07T13:50:10;14.15;;;5.30;;
27187;SDS011;14708;50.872;5.306;2023-05-07T13:52:38;15.18;;;5.35;;
27187;SDS011;14708;50.872;5.306;2023-05-07T13:55:08;13.10;;;5.85;;
27187;SDS011;14708;50.872;5.306;2023-05-07T13:57:35;11.50;;;5.03;;
27187;SDS011;14708;50.872;5.306;2023-05-07T14:00:02;12.63;;;5.65;;
27187;SDS011;14708;50.872;5.306;2023-05-07T14:02:30;12.75;;;5.50;;
27187;SDS011;14708;50.872;5.306;2023-05-07T14:04:56;13.98;;;5.93;;
27187;SDS011;14708;50.872;5.306;2023-05-07T14:07:21;13.32;;;5.38;;
27187;SDS011;14708;50.872;5.306;2023-05-07T14:09:47;10.70;;;5.35;;
27187;SDS011;14708;50.872;5.306;2023-05-07T14:12:13;12.52;;;5.45;;
27187;SDS011;14708;50.872;5.306;2023-05-07T14:14:38;13.70;;;5.03;;
27187;SDS011;14708;50.872;5.306;2023-05-07T14:17:04;11.23;;;5.38;;
27187;SDS011;14708;50.872;5.306;2023-05-07T14:19:30;15.07;;;5.35;;
27187;SDS011;14708;50.872;5.306;2023-05-07T14:21:55;10.93;;;4.90;;
27187;SDS011;14708;50.872;5.306;2023-05-07T14:24:21;9.57;;;5.13;;
27187;SDS011;14708;50.872;5.306;2023-05-07T14:26:47;10.63;;;4.90;;
27187;SDS011;14708;50.872;5.306;2023-05-07T14:29:12;14.13;;;5.30;;
27187;SDS011;14708;50.872;5.306;2023-05-07T14:31:40;12.85;;;5.53;;
27187;SDS011;14708;50.872;5.306;2023-05-07T14:34:06;9.65;;;4.88;;
27187;SDS011;14708;50.872;5.306;2023-05-07T14:36:32;9.98;;;4.43;;
27187;SDS011;14708;50.872;5.306;2023-05-07T14:38:57;12.48;;;5.53;;
27187;SDS011;14708;50.872;5.306;2023-05-07T14:41:24;9.38;;;4.63;;
27187;SDS011;14708;50.872;5.306;2023-05-07T14:43:50;11.55;;;4.72;;
27187;SDS011;14708;50.872;5.306;2023-05-07T14:46:16;9.75;;;4.57;;
27187;SDS011;14708;50.872;5.306;2023-05-07T14:48:43;8.43;;;4.38;;
27187;SDS011;14708;50.872;5.306;2023-05-07T14:51:10;11.95;;;5.13;;
27187;SDS011;14708;50.872;5.306;2023-05-07T14:53:36;10.90;;;4.53;;
27187;SDS011;14708;50.872;5.306;2023-05-07T14:56:01;13.38;;;5.45;;
27187;SDS011;14708;50.872;5.306;2023-05-07T14:58:28;11.75;;;4.50;;
27187;SDS011;14708;50.872;5.306;2023-05-07T15:00:53;9.57;;;4.60;;
27187;SDS011;14708;50.872;5.306;2023-05-07T15:03:19;13.57;;;4.57;;
27187;SDS011;14708;50.872;5.306;2023-05-07T15:05:45;11.15;;;4.75;;
27187;SDS011;14708;50.872;5.306;2023-05-07T15:08:11;16.88;;;5.40;;
27187;SDS011;14708;50.872;5.306;2023-05-07T15:10:37;13.35;;;4.85;;
27187;SDS011;14708;50.872;5.306;2023-05-07T15:13:08;7.68;;;3.20;;
27187;SDS011;14708;50.872;5.306;2023-05-07T15:15:35;7.55;;;2.97;;
27187;SDS011;14708;50.872;5.306;2023-05-07T15:18:01;34.40;;;9.77;;
27187;SDS011;14708;50.872;5.306;2023-05-07T15:20:27;28.63;;;7.93;;
27187;SDS011;14708;50.872;5.306;2023-05-07T15:22:53;38.25;;;8.75;;
27187;SDS011;14708;50.872;5.306;2023-05-07T15:25:20;23.23;;;7.55;;
27187;SDS011;14708;50.872;5.306;2023-05-07T15:27:45;39.63;;;10.00;;
27187;SDS011;14708;50.872;5.306;2023-05-07T15:30:11;29.58;;;8.82;;
27187;SDS011;14708;50.872;5.306;2023-05-07T15:32:39;28.67;;;7.22;;
27187;SDS011;14708;50.872;5.306;2023-05-07T15:35:05;22.55;;;7.18;;
27187;SDS011;14708;50.872;5.306;2023-05-07T15:37:39;23.35;;;6.25;;
27187;SDS011;14708;50.872;5.306;2023-05-07T15:40:07;26.45;;;6.20;;
27187;SDS011;14708;50.872;5.306;2023-05-07T15:42:41;17.38;;;5.65;;
27187;SDS011;14708;50.872;5.306;2023-05-07T15:45:10;19.40;;;5.63;;
27187;SDS011;14708;50.872;5.306;2023-05-07T15:47:36;19.52;;;6.07;;
27187;SDS011;14708;50.872;5.306;2023-05-07T15:50:02;25.63;;;6.60;;
27187;SDS011;14708;50.872;5.306;2023-05-07T15:52:29;21.70;;;6.13;;
27187;SDS011;14708;50.872;5.306;2023-05-07T15:54:55;17.10;;;5.50;;
27187;SDS011;14708;50.872;5.306;2023-05-07T15:57:22;19.85;;;5.88;;
27187;SDS011;14708;50.872;5.306;2023-05-07T15:59:48;23.38;;;6.45;;
27187;SDS011;14708;50.872;5.306;2023-05-07T16:02:14;22.27;;;6.90;;
27187;SDS011;14708;50.872;5.306;2023-05-07T16:04:40;21.00;;;6.63;;
27187;SDS011;14708;50.872;5.306;2023-05-07T16:07:08;19.52;;;6.85;;
27187;SDS011;14708;50.872;5.306;2023-05-07T16:09:33;19.95;;;6.03;;
27187;SDS011;14708;50.872;5.306;2023-05-07T16:11:59;26.52;;;7.20;;
27187;SDS011;14708;50.872;5.306;2023-05-07T16:14:25;23.52;;;7.20;;
27187;SDS011;14708;50.872;5.306;2023-05-07T16:16:51;17.30;;;5.95;;
27187;SDS011;14708;50.872;5.306;2023-05-07T16:19:17;17.13;;;6.28;;
27187;SDS011;14708;50.872;5.306;2023-05-07T16:21:43;21.48;;;6.97;;
27187;SDS011;14708;50.872;5.306;2023-05-07T16:24:09;19.30;;;6.28;;
27187;SDS011;14708;50.872;5.306;2023-05-07T16:26:34;18.70;;;5.82;;
27187;SDS011;14708;50.872;5.306;2023-05-07T16:29:00;19.73;;;6.38;;
27187;SDS011;14708;50.872;5.306;2023-05-07T16:31:26;20.20;;;6.63;;
27187;SDS011;14708;50.872;5.306;2023-05-07T16:33:52;17.98;;;5.13;;
27187;SDS011;14708;50.872;5.306;2023-05-07T16:36:17;23.67;;;6.07;;
27187;SDS011;14708;50.872;5.306;2023-05-07T16:38:43;22.63;;;5.82;;
27187;SDS011;14708;50.872;5.306;2023-05-07T16:41:09;15.80;;;5.38;;
27187;SDS011;14708;50.872;5.306;2023-05-07T16:43:35;15.02;;;5.53;;
27187;SDS011;14708;50.872;5.306;2023-05-07T16:46:01;23.42;;;5.63;;
27187;SDS011;14708;50.872;5.306;2023-05-07T16:48:28;14.82;;;5.22;;
27187;SDS011;14708;50.872;5.306;2023-05-07T16:50:53;14.20;;;4.70;;
27187;SDS011;14708;50.872;5.306;2023-05-07T16:53:19;21.50;;;5.72;;
27187;SDS011;14708;50.872;5.306;2023-05-07T16:55:45;17.73;;;5.32;;
27187;SDS011;14708;50.872;5.306;2023-05-07T16:58:11;21.77;;;6.05;;
27187;SDS011;14708;50.872;5.306;2023-05-07T17:00:37;16.05;;;5.13;;
27187;SDS011;14708;50.872;5.306;2023-05-07T17:03:03;9.90;;;4.40;;
27187;SDS011;14708;50.872;5.306;2023-05-07T17:05:30;13.02;;;4.63;;
27187;SDS011;14708;50.872;5.306;2023-05-07T17:07:56;14.00;;;4.82;;
27187;SDS011;14708;50.872;5.306;2023-05-07T17:12:51;14.40;;;5.32;;
27187;SDS011;14708;50.872;5.306;2023-05-07T17:15:16;14.32;;;5.43;;
27187;SDS011;14708;50.872;5.306;2023-05-07T17:17:42;14.52;;;4.97;;
27187;SDS011;14708;50.872;5.306;2023-05-07T17:20:08;14.30;;;5.38;;
27187;SDS011;14708;50.872;5.306;2023-05-07T17:22:34;16.77;;;5.97;;
27187;SDS011;14708;50.872;5.306;2023-05-07T17:25:00;15.20;;;4.75;;
27187;SDS011;14708;50.872;5.306;2023-05-07T17:27:28;16.92;;;5.00;;
27187;SDS011;14708;50.872;5.306;2023-05-07T17:29:55;13.02;;;5.57;;
27187;SDS011;14708;50.872;5.306;2023-05-07T17:32:21;15.82;;;5.72;;
27187;SDS011;14708;50.872;5.306;2023-05-07T17:34:47;9.63;;;4.50;;
27187;SDS011;14708;50.872;5.306;2023-05-07T17:37:13;11.68;;;5.30;;
27187;SDS011;14708;50.872;5.306;2023-05-07T17:39:39;11.07;;;4.43;;
27187;SDS011;14708;50.872;5.306;2023-05-07T17:42:05;20.42;;;5.35;;
27187;SDS011;14708;50.872;5.306;2023-05-07T17:44:31;13.85;;;4.72;;
27187;SDS011;14708;50.872;5.306;2023-05-07T17:46:57;12.55;;;5.38;;
27187;SDS011;14708;50.872;5.306;2023-05-07T17:49:23;10.68;;;4.60;;
27187;SDS011;14708;50.872;5.306;2023-05-07T17:51:49;12.90;;;4.75;;
27187;SDS011;14708;50.872;5.306;2023-05-07T17:54:15;17.63;;;5.38;;
27187;SDS011;14708;50.872;5.306;2023-05-07T17:56:41;12.75;;;5.05;;
27187;SDS011;14708;50.872;5.306;2023-05-07T17:59:06;11.25;;;5.18;;
27187;SDS011;14708;50.872;5.306;2023-05-07T18:01:32;13.82;;;4.82;;
27187;SDS011;14708;50.872;5.306;2023-05-07T18:03:58;13.10;;;4.85;;
27187;SDS011;14708;50.872;5.306;2023-05-07T18:06:24;10.02;;;4.72;;
27187;SDS011;14708;50.872;5.306;2023-05-07T18:08:50;11.48;;;4.80;;
27187;SDS011;14708;50.872;5.306;2023-05-07T18:11:15;12.27;;;5.00;;
27187;SDS011;14708;50.872;5.306;2023-05-07T18:13:41;9.25;;;4.40;;
27187;SDS011;14708;50.872;5.306;2023-05-07T18:16:07;13.93;;;4.35;;
27187;SDS011;14708;50.872;5.306;2023-05-07T18:18:33;13.30;;;4.88;;
27187;SDS011;14708;50.872;5.306;2023-05-07T18:20:59;13.82;;;4.57;;
27187;SDS011;14708;50.872;5.306;2023-05-07T18:23:26;10.52;;;4.70;;
27187;SDS011;14708;50.872;5.306;2023-05-07T18:25:52;13.15;;;4.88;;
27187;SDS011;14708;50.872;5.306;2023-05-07T18:28:18;13.07;;;5.25;;
27187;SDS011;14708;50.872;5.306;2023-05-07T18:30:43;11.00;;;4.70;;
27187;SDS011;14708;50.872;5.306;2023-05-07T18:33:17;10.52;;;4.80;;
27187;SDS011;14708;50.872;5.306;2023-05-07T18:35:43;13.45;;;4.70;;
27187;SDS011;14708;50.872;5.306;2023-05-07T18:38:09;14.32;;;4.72;;
27187;SDS011;14708;50.872;5.306;2023-05-07T18:40:35;9.27;;;4.47;;
27187;SDS011;14708;50.872;5.306;2023-05-07T18:43:00;13.73;;;4.57;;
27187;SDS011;14708;50.872;5.306;2023-05-07T18:45:30;13.70;;;4.30;;
27187;SDS011;14708;50.872;5.306;2023-05-07T18:47:57;12.15;;;4.25;;
27187;SDS011;14708;50.872;5.306;2023-05-07T18:50:23;13.15;;;4.13;;
27187;SDS011;14708;50.872;5.306;2023-05-07T18:52:49;8.75;;;4.28;;
27187;SDS011;14708;50.872;5.306;2023-05-07T18:55:14;11.25;;;4.20;;
27187;SDS011;14708;50.872;5.306;2023-05-07T18:57:41;10.38;;;4.45;;
27187;SDS011;14708;50.872;5.306;2023-05-07T19:00:09;13.88;;;4.43;;
27187;SDS011;14708;50.872;5.306;2023-05-07T19:02:36;9.68;;;4.43;;
27187;SDS011;14708;50.872;5.306;2023-05-07T19:05:02;14.02;;;4.90;;
27187;SDS011;14708;50.872;5.306;2023-05-07T19:07:28;12.48;;;4.72;;
27187;SDS011;14708;50.872;5.306;2023-05-07T19:09:54;14.18;;;4.97;;
27187;SDS011;14708;50.872;5.306;2023-05-07T19:12:20;13.23;;;4.63;;
27187;SDS011;14708;50.872;5.306;2023-05-07T19:14:46;11.65;;;4.60;;
27187;SDS011;14708;50.872;5.306;2023-05-07T19:17:12;11.95;;;4.40;;
27187;SDS011;14708;50.872;5.306;2023-05-07T19:19:40;10.32;;;4.20;;
27187;SDS011;14708;50.872;5.306;2023-05-07T19:22:05;11.68;;;4.25;;
27187;SDS011;14708;50.872;5.306;2023-05-07T19:24:31;9.75;;;4.45;;
27187;SDS011;14708;50.872;5.306;2023-05-07T19:26:58;10.88;;;4.07;;
27187;SDS011;14708;50.872;5.306;2023-05-07T19:29:24;17.20;;;4.55;;
27187;SDS011;14708;50.872;5.306;2023-05-07T19:31:50;9.55;;;4.00;;
27187;SDS011;14708;50.872;5.306;2023-05-07T19:34:15;12.40;;;4.40;;
27187;SDS011;14708;50.872;5.306;2023-05-07T19:36:41;9.73;;;4.68;;
27187;SDS011;14708;50.872;5.306;2023-05-07T19:39:07;9.02;;;3.92;;
27187;SDS011;14708;50.872;5.306;2023-05-07T19:41:33;8.88;;;4.05;;
27187;SDS011;14708;50.872;5.306;2023-05-07T19:43:58;12.10;;;4.20;;
27187;SDS011;14708;50.872;5.306;2023-05-07T19:46:24;10.80;;;4.13;;
27187;SDS011;14708;50.872;5.306;2023-05-07T19:48:50;12.02;;;4.28;;
27187;SDS011;14708;50.872;5.306;2023-05-07T19:51:16;8.88;;;3.88;;
27187;SDS011;14708;50.872;5.306;2023-05-07T19:53:41;12.48;;;4.05;;
27187;SDS011;14708;50.872;5.306;2023-05-07T19:56:09;6.10;;;3.28;;
27187;SDS011;14708;50.872;5.306;2023-05-07T19:58:35;11.68;;;3.92;;
27187;SDS011;14708;50.872;5.306;2023-05-07T20:01:02;10.10;;;3.95;;
27187;SDS011;14708;50.872;5.306;2023-05-07T20:03:29;8.13;;;4.10;;
27187;SDS011;14708;50.872;5.306;2023-05-07T20:05:55;8.07;;;3.78;;
27187;SDS011;14708;50.872;5.306;2023-05-07T20:08:22;11.32;;;3.85;;
27187;SDS011;14708;50.872;5.306;2023-05-07T20:10:48;12.13;;;4.22;;
27187;SDS011;14708;50.872;5.306;2023-05-07T20:13:14;8.85;;;3.92;;
27187;SDS011;14708;50.872;5.306;2023-05-07T20:15:40;6.20;;;3.42;;
27187;SDS011;14708;50.872;5.306;2023-05-07T20:18:06;6.70;;;3.38;;
27187;SDS011;14708;50.872;5.306;2023-05-07T20:20:32;7.68;;;3.42;;
27187;SDS011;14708;50.872;5.306;2023-05-07T20:22:57;10.65;;;4.00;;
27187;SDS011;14708;50.872;5.306;2023-05-07T20:25:23;9.48;;;3.60;;
27187;SDS011;14708;50.872;5.306;2023-05-07T20:27:49;8.57;;;3.78;;
27187;SDS011;14708;50.872;5.306;2023-05-07T20:30:14;8.82;;;3.60;;
27187;SDS011;14708;50.872;5.306;2023-05-07T20:32:42;7.43;;;3.33;;
27187;SDS011;14708;50.872;5.306;2023-05-07T20:35:08;5.50;;;3.08;;
27187;SDS011;14708;50.872;5.306;2023-05-07T20:37:34;8.35;;;3.33;;
27187;SDS011;14708;50.872;5.306;2023-05-07T20:40:00;9.25;;;3.70;;
27187;SDS011;14708;50.872;5.306;2023-05-07T20:42:27;8.45;;;3.45;;
27187;SDS011;14708;50.872;5.306;2023-05-07T20:44:52;11.85;;;4.53;;
27187;SDS011;14708;50.872;5.306;2023-05-07T20:47:19;6.90;;;3.30;;
27187;SDS011;14708;50.872;5.306;2023-05-07T20:49:49;5.82;;;3.58;;
27187;SDS011;14708;50.872;5.306;2023-05-07T20:52:15;5.30;;;3.22;;
27187;SDS011;14708;50.872;5.306;2023-05-07T20:54:41;7.97;;;3.55;;
27187;SDS011;14708;50.872;5.306;2023-05-07T20:57:08;9.05;;;3.30;;
27187;SDS011;14708;50.872;5.306;2023-05-07T20:59:34;7.68;;;3.72;;
27187;SDS011;14708;50.872;5.306;2023-05-07T21:02:01;8.80;;;4.05;;
27187;SDS011;14708;50.872;5.306;2023-05-07T21:04:27;7.75;;;3.58;;
27187;SDS011;14708;50.872;5.306;2023-05-07T21:06:53;7.97;;;3.60;;
27187;SDS011;14708;50.872;5.306;2023-05-07T21:09:20;6.75;;;3.22;;
27187;SDS011;14708;50.872;5.306;2023-05-07T21:11:45;6.82;;;3.58;;
27187;SDS011;14708;50.872;5.306;2023-05-07T21:14:11;8.38;;;3.53;;
27187;SDS011;14708;50.872;5.306;2023-05-07T21:16:37;7.72;;;3.35;;
27187;SDS011;14708;50.872;5.306;2023-05-07T21:19:04;7.20;;;3.28;;
27187;SDS011;14708;50.872;5.306;2023-05-07T21:21:30;5.50;;;3.22;;
27187;SDS011;14708;50.872;5.306;2023-05-07T21:23:56;7.70;;;3.50;;
27187;SDS011;14708;50.872;5.306;2023-05-07T21:26:22;7.35;;;3.70;;
27187;SDS011;14708;50.872;5.306;2023-05-07T21:28:48;7.13;;;3.05;;
27187;SDS011;14708;50.872;5.306;2023-05-07T21:31:14;5.80;;;3.42;;
27187;SDS011;14708;50.872;5.306;2023-05-07T21:33:41;7.40;;;2.85;;
27187;SDS011;14708;50.872;5.306;2023-05-07T21:36:07;6.38;;;3.10;;
27187;SDS011;14708;50.872;5.306;2023-05-07T21:38:33;8.00;;;3.28;;
27187;SDS011;14708;50.872;5.306;2023-05-07T21:41:00;7.72;;;3.13;;
27187;SDS011;14708;50.872;5.306;2023-05-07T21:43:26;6.68;;;2.90;;
27187;SDS011;14708;50.872;5.306;2023-05-07T21:45:51;6.70;;;3.05;;
27187;SDS011;14708;50.872;5.306;2023-05-07T21:48:17;6.93;;;3.42;;
27187;SDS011;14708;50.872;5.306;2023-05-07T21:50:45;6.83;;;2.87;;
27187;SDS011;14708;50.872;5.306;2023-05-07T21:53:32;5.88;;;2.80;;
27187;SDS011;14708;50.872;5.306;2023-05-07T21:55:58;7.57;;;3.40;;
27187;SDS011;14708;50.872;5.306;2023-05-07T21:58:26;5.82;;;3.28;;
27187;SDS011;14708;50.872;5.306;2023-05-07T22:00:52;6.72;;;3.10;;
27187;SDS011;14708;50.872;5.306;2023-05-07T22:03:18;7.72;;;3.20;;
27187;SDS011;14708;50.872;5.306;2023-05-07T22:05:43;4.47;;;3.08;;
27187;SDS011;14708;50.872;5.306;2023-05-07T22:08:09;7.80;;;3.30;;
27187;SDS011;14708;50.872;5.306;2023-05-07T22:10:35;4.47;;;2.25;;
27187;SDS011;14708;50.872;5.306;2023-05-07T22:13:01;7.13;;;3.00;;
27187;SDS011;14708;50.872;5.306;2023-05-07T22:15:27;4.93;;;2.70;;
27187;SDS011;14708;50.872;5.306;2023-05-07T22:17:53;6.35;;;3.15;;
27187;SDS011;14708;50.872;5.306;2023-05-07T22:20:19;4.80;;;2.72;;
27187;SDS011;14708;50.872;5.306;2023-05-07T22:22:45;6.55;;;3.25;;
27187;SDS011;14708;50.872;5.306;2023-05-07T22:25:12;7.45;;;2.90;;
27187;SDS011;14708;50.872;5.306;2023-05-07T22:27:38;4.72;;;2.72;;
27187;SDS011;14708;50.872;5.306;2023-05-07T22:30:04;5.28;;;2.63;;
27187;SDS011;14708;50.872;5.306;2023-05-07T22:32:30;5.72;;;3.10;;